Al Rekayyat — V7QF3 — position and weather

sailwx.info

Track history (hours):
 
Tides and Currents Weather Stations Pressure Air Temp Water Temp Dewpoint Dewpoint Depression Visibility Wind Speed Wind Dir Waves Ship Positions

Al Rekayyat

Last reported at 2014-Oct-10 21:33 UTC. Time now 2014-Oct-26 07:07 UTC.
Position N 31°30' E 032°15'.
Warning: this ship's position is 15 days out of date.

Length 315 m; draft 9.3 m.

Type: Tanker. MMSI: 538003347.

Date/timePositionNaut miles runAvg speedWind from/ knotsBaromVisibWave heightAir tempDewpointWater temp
2014-Oct-10 21:33N 31°30' E 032°15'9 9.3
2014-Oct-10 20:33N 31°36' E 032°07'1913.9
2014-Oct-10 19:12N 31°48' E 031°50'1314.5
2014-Oct-10 18:17N 31°53' E 031°35'  
2014-Oct-08 12:33N 36°09' E 015°09'1715.9
2014-Oct-08 11:29N 36°13' E 014°49'1716.4
2014-Oct-08 10:25N 36°19' E 014°29'16216.1
2014-Oct-08 00:20N 37°19' E 011°20'1316.2
2014-Oct-07 23:33N 37°25' E 011°06'1716.3
2014-Oct-07 22:32N 37°33' E 010°48'1515.7
2014-Oct-07 21:33N 37°40' E 010°30'1616.0
2014-Oct-07 20:33N 37°44' E 010°11'1716.6
2014-Oct-07 19:33N 37°48' E 009°50'1616.2
2014-Oct-07 18:33N 37°52' E 009°30'1616.1
2014-Oct-07 17:33N 37°55' E 009°10'1616.1
2014-Oct-07 16:33N 37°58' E 008°50'1616.3
2014-Oct-07 15:33N 38°01' E 008°30'1816.4
2014-Oct-07 14:29N 38°05' E 008°08'1716.7
2014-Oct-07 13:27N 38°08' E 007°47'5216.1
2014-Oct-07 10:12N 38°18' E 006°41'6016.4
2014-Oct-07 06:32N 38°30' E 005°26'2416.4
2014-Oct-07 05:04N 38°34' E 004°56'2616.5
2014-Oct-07 03:28N 38°39' E 004°23'1616.7
2014-Oct-07 02:29N 38°43' E 004°02'1616.7
2014-Oct-07 01:33N 38°46' E 003°43'1716.5
2014-Oct-07 00:33N 38°49' E 003°22'1616.2
2014-Oct-06 23:33N 38°52' E 003°01'1615.9
2014-Oct-06 22:33N 38°56' E 002°42'1615.9
2014-Oct-06 21:33N 39°03' E 002°23'1615.9
2014-Oct-06 20:33N 39°11' E 002°05'1616.3
2014-Oct-06 19:33N 39°18' E 001°46'1616.2
2014-Oct-06 18:33N 39°22' E 001°26'2116.3
2014-Oct-06 17:18N 39°26' E 000°60'4915.9
2014-Oct-06 14:14N 39°35' W 000°02'810.7
2014-Oct-06 13:30N 39°37' W 000°12'1 1.1
2014-Oct-06 12:33N 39°38' W 000°13'0 0.0
2014-Oct-05 07:27N 39°38' W 000°13'0 0.4
2014-Oct-05 06:33N 39°38' W 000°12'7 5.5
2014-Oct-05 05:13N 39°35' W 000°04'711.0
2014-Oct-05 04:33N 39°34' E 000°06'5515.7
2014-Oct-05 01:04N 39°26' E 001°16'815.7
2014-Oct-05 00:33N 39°23' E 001°26'1515.4
2014-Oct-04 23:33N 39°18' E 001°44'1615.8
2014-Oct-04 22:33N 39°11' E 002°03'1615.8
2014-Oct-04 21:33N 39°05' E 002°21'1616.1
2014-Oct-04 20:33N 38°57' E 002°40'1615.9
2014-Oct-04 19:33N 38°53' E 002°59'1615.9
2014-Oct-04 18:33N 38°50' E 003°19'1815.7
2014-Oct-04 17:23N 38°46' E 003°42'46916.1
2014-Oct-03 12:15N 36°43' E 013°15'  
Track history (hours):
 
Tides and Currents Weather Stations Pressure Air Temp Water Temp Dewpoint Dewpoint Depression Visibility Wind Speed Wind Dir Waves Ship Positions

Al Rekayyat

Last reported at 2014-Oct-10 21:33 UTC. Time now 2014-Oct-26 07:07 UTC.
Position N 31°30' E 032°15'.
Warning: this ship's position is 15 days out of date.

Length 315 m; draft 9.3 m.

Type: Tanker. MMSI: 538003347.

Date/timePositionNaut miles runAvg speedWind from/ knotsBaromVisibWave heightAir tempDewpointWater temp
2014-Oct-10 21:33N 31°30' E 032°15'9 9.3
2014-Oct-10 20:33N 31°36' E 032°07'1913.9
2014-Oct-10 19:12N 31°48' E 031°50'1314.5
2014-Oct-10 18:17N 31°53' E 031°35'  
2014-Oct-08 12:33N 36°09' E 015°09'1715.9
2014-Oct-08 11:29N 36°13' E 014°49'1716.4
2014-Oct-08 10:25N 36°19' E 014°29'16216.1
2014-Oct-08 00:20N 37°19' E 011°20'1316.2
2014-Oct-07 23:33N 37°25' E 011°06'1716.3
2014-Oct-07 22:32N 37°33' E 010°48'1515.7
2014-Oct-07 21:33N 37°40' E 010°30'1616.0
2014-Oct-07 20:33N 37°44' E 010°11'1716.6
2014-Oct-07 19:33N 37°48' E 009°50'1616.2
2014-Oct-07 18:33N 37°52' E 009°30'1616.1
2014-Oct-07 17:33N 37°55' E 009°10'1616.1
2014-Oct-07 16:33N 37°58' E 008°50'1616.3
2014-Oct-07 15:33N 38°01' E 008°30'1816.4
2014-Oct-07 14:29N 38°05' E 008°08'1716.7
2014-Oct-07 13:27N 38°08' E 007°47'5216.1
2014-Oct-07 10:12N 38°18' E 006°41'6016.4
2014-Oct-07 06:32N 38°30' E 005°26'2416.4
2014-Oct-07 05:04N 38°34' E 004°56'2616.5
2014-Oct-07 03:28N 38°39' E 004°23'1616.7
2014-Oct-07 02:29N 38°43' E 004°02'1616.7
2014-Oct-07 01:33N 38°46' E 003°43'1716.5
2014-Oct-07 00:33N 38°49' E 003°22'1616.2
2014-Oct-06 23:33N 38°52' E 003°01'1615.9
2014-Oct-06 22:33N 38°56' E 002°42'1615.9
2014-Oct-06 21:33N 39°03' E 002°23'1615.9
2014-Oct-06 20:33N 39°11' E 002°05'1616.3
2014-Oct-06 19:33N 39°18' E 001°46'1616.2
2014-Oct-06 18:33N 39°22' E 001°26'2116.3
2014-Oct-06 17:18N 39°26' E 000°60'4915.9
2014-Oct-06 14:14N 39°35' W 000°02'810.7
2014-Oct-06 13:30N 39°37' W 000°12'1 1.1
2014-Oct-06 12:33N 39°38' W 000°13'0 0.0
2014-Oct-05 07:27N 39°38' W 000°13'0 0.4
2014-Oct-05 06:33N 39°38' W 000°12'7 5.5
2014-Oct-05 05:13N 39°35' W 000°04'711.0
2014-Oct-05 04:33N 39°34' E 000°06'5515.7
2014-Oct-05 01:04N 39°26' E 001°16'815.7
2014-Oct-05 00:33N 39°23' E 001°26'1515.4
2014-Oct-04 23:33N 39°18' E 001°44'1615.8
2014-Oct-04 22:33N 39°11' E 002°03'1615.8
2014-Oct-04 21:33N 39°05' E 002°21'1616.1
2014-Oct-04 20:33N 38°57' E 002°40'1615.9
2014-Oct-04 19:33N 38°53' E 002°59'1615.9
2014-Oct-04 18:33N 38°50' E 003°19'1815.7
2014-Oct-04 17:23N 38°46' E 003°42'46916.1
2014-Oct-03 12:15N 36°43' E 013°15'  

Dump ship's entire track history